Time;durP1;ratioP1;P1;durP2;ratioP2;P2;SDS_P1;SDS_P2;PMS_P1;PMS_P2;Temp;Humidity;BMP_temperature;BMP_pressure;BME280_temperature;BME280_humidity;BME280_pressure;Samples;Min_cycle;Max_cycle;Signal;HPM_P1;HPM_P2
2022/10/12 00:01:59;;;;;;;3.65;1.88;;;20.20;63.30;;;;;;4968626;28;91987;-86
2022/10/12 00:04:24;;;;;;;3.45;1.60;;;20.10;62.90;;;;;;4968830;28;92508;-86
2022/10/12 00:06:50;;;;;;;3.10;1.70;;;20.10;63.10;;;;;;4939871;28;96505;-86
2022/10/12 00:09:16;;;;;;;4.00;2.00;;;20.10;63.10;;;;;;4968908;28;92515;-87
2022/10/12 00:11:41;;;;;;;3.88;1.90;;;20.10;63.20;;;;;;4967387;28;92214;-86
2022/10/12 00:14:07;;;;;;;3.58;1.80;;;20.10;63.30;;;;;;4967329;28;95009;-87
2022/10/12 00:16:33;;;;;;;3.67;1.77;;;20.10;63.10;;;;;;4966545;28;96353;-86
2022/10/12 00:18:59;;;;;;;5.05;2.00;;;20.10;63.20;;;;;;4970963;28;92523;-87
2022/10/12 00:21:27;;;;;;;3.42;1.75;;;20.10;63.00;;;;;;4967880;28;93267;-86
2022/10/12 00:24:18;;;;;;;2.85;1.40;;;20.00;63.00;;;;;;4966102;28;96239;-86
2022/10/12 00:26:44;;;;;;;3.85;1.67;;;20.00;62.90;;;;;;4934625;28;94086;-86
2022/10/12 00:29:09;;;;;;;3.50;1.92;;;20.00;63.10;;;;;;4937534;28;92524;-87
2022/10/12 00:31:35;;;;;;;4.47;1.90;;;20.00;63.10;;;;;;4936429;28;92460;-85
2022/10/12 00:34:02;;;;;;;4.65;1.95;;;20.00;63.10;;;;;;4937510;28;93894;-87
2022/10/12 00:36:34;;;;;;;3.30;1.60;;;20.00;63.30;;;;;;4935775;28;97525;-87
2022/10/12 00:39:01;;;;;;;2.90;1.85;;;20.00;63.20;;;;;;4937811;28;92825;-87
2022/10/12 00:41:33;;;;;;;2.92;1.70;;;20.00;63.10;;;;;;4936870;28;91626;-86
2022/10/12 00:43:59;;;;;;;3.05;1.85;;;20.00;63.10;;;;;;4936230;28;94958;-86
2022/10/12 00:46:34;;;;;;;3.00;1.58;;;20.00;63.20;;;;;;4921442;28;95639;-86
2022/10/12 00:49:11;;;;;;;2.58;1.75;;;20.00;63.20;;;;;;4937645;28;93656;-86
2022/10/12 00:51:40;;;;;;;2.03;1.52;;;19.90;63.10;;;;;;4920021;28;92579;-86
2022/10/12 00:54:11;;;;;;;2.53;1.40;;;20.00;63.20;;;;;;4938124;28;94164;-86
2022/10/12 00:56:40;;;;;;;3.28;1.70;;;19.90;63.10;;;;;;4909511;28;96404;-86
2022/10/12 00:59:11;;;;;;;3.47;1.50;;;19.90;63.10;;;;;;4966099;28;92216;-86
2022/10/12 01:01:37;;;;;;;3.63;1.67;;;19.90;63.10;;;;;;4959023;28;92364;-86
2022/10/12 01:04:05;;;;;;;2.55;1.70;;;19.90;63.20;;;;;;4969186;28;93646;-86
2022/10/12 01:06:31;;;;;;;3.22;1.73;;;19.90;63.20;;;;;;4967260;28;96033;-86
2022/10/12 01:08:57;;;;;;;3.45;1.63;;;19.90;63.10;;;;;;4967839;28;92550;-86
2022/10/12 01:11:23;;;;;;;2.75;1.73;;;19.90;63.20;;;;;;4968876;28;92254;-86
2022/10/12 01:13:49;;;;;;;3.33;1.90;;;19.90;63.00;;;;;;4973194;28;96358;-86
2022/10/12 01:16:27;;;;;;;2.10;1.60;;;19.90;63.00;;;;;;4967140;28;96219;-86
2022/10/12 01:19:09;;;;;;;3.47;1.52;;;19.80;62.90;;;;;;4969173;28;92780;-86
2022/10/12 01:21:44;;;;;;;2.55;1.90;;;19.90;63.10;;;;;;4972099;28;92615;-86
2022/10/12 01:24:47;;;;;;;2.40;1.55;;;19.90;63.10;;;;;;4967288;28;92902;-87
2022/10/12 01:27:46;;;;;;;2.63;1.73;;;19.80;63.70;;;;;;4974210;28;97443;-87
2022/10/12 01:30:39;;;;;;;3.13;1.95;;;19.80;63.10;;;;;;4969309;28;91872;-86
2022/10/12 01:33:20;;;;;;;2.53;1.70;;;19.80;63.20;;;;;;4967516;28;91301;-87
2022/10/12 01:36:12;;;;;;;4.10;2.05;;;19.80;63.20;;;;;;4967921;28;93614;-86
2022/10/12 01:38:56;;;;;;;2.45;1.42;;;19.80;63.20;;;;;;4966826;28;96503;-86
2022/10/12 01:41:38;;;;;;;3.75;1.83;;;19.80;63.10;;;;;;4963887;28;92871;-86
2022/10/12 01:44:03;;;;;;;5.13;2.15;;;19.80;63.20;;;;;;4968507;28;92086;-86
2022/10/12 01:46:31;;;;;;;3.28;1.70;;;19.80;63.20;;;;;;4965007;28;93449;-85
2022/10/12 01:48:59;;;;;;;2.42;1.50;;;19.80;63.40;;;;;;4967668;28;94379;-86
2022/10/12 01:51:30;;;;;;;3.35;1.60;;;19.80;63.30;;;;;;4971557;28;92381;-87
2022/10/12 01:54:07;;;;;;;3.25;1.88;;;19.70;63.00;;;;;;4965627;28;91862;-86
2022/10/12 01:56:47;;;;;;;2.40;1.63;;;19.70;63.20;;;;;;4972678;28;93350;-87
2022/10/12 01:59:29;;;;;;;3.25;1.77;;;19.70;63.10;;;;;;4963649;28;94211;-86
2022/10/12 02:02:36;;;;;;;2.42;1.52;;;19.70;63.10;;;;;;4973924;28;92629;-87
2022/10/12 02:05:23;;;;;;;1.80;1.58;;;19.70;63.20;;;;;;4971569;28;92633;-86
2022/10/12 02:08:21;;;;;;;2.70;1.90;;;19.70;63.00;;;;;;4969823;28;94469;-86
2022/10/12 02:11:01;;;;;;;2.03;1.40;;;19.70;63.20;;;;;;4900875;28;93700;-86
2022/10/12 02:13:30;;;;;;;2.30;1.40;;;19.70;63.10;;;;;;4902227;28;92345;-86
2022/10/12 02:15:59;;;;;;;2.25;1.58;;;19.70;63.00;;;;;;4885073;28;94052;-86
2022/10/12 02:18:27;;;;;;;2.40;1.83;;;19.70;62.90;;;;;;4900790;28;92536;-86
2022/10/12 02:20:57;;;;;;;2.58;1.70;;;19.70;63.00;;;;;;4900038;28;95353;-86
2022/10/12 02:23:31;;;;;;;2.55;1.65;;;19.70;62.90;;;;;;4885044;28;92424;-86
2022/10/12 02:25:59;;;;;;;3.92;1.85;;;19.70;63.00;;;;;;4901289;28;91772;-86
2022/10/12 02:28:28;;;;;;;2.97;1.85;;;19.70;62.90;;;;;;4884682;28;95258;-86
2022/10/12 02:31:05;;;;;;;1.80;1.42;;;19.60;63.00;;;;;;4899870;28;96016;-86
2022/10/12 02:33:56;;;;;;;2.78;1.40;;;19.60;62.80;;;;;;4900813;28;92960;-86
2022/10/12 02:36:44;;;;;;;1.92;1.33;;;19.60;63.00;;;;;;4899120;28;93591;-86
2022/10/12 02:39:25;;;;;;;1.60;1.50;;;19.60;62.90;;;;;;4900191;28;96036;-86
2022/10/12 02:41:56;;;;;;;1.85;1.60;;;19.60;62.80;;;;;;4900040;28;92725;-86
2022/10/12 02:44:29;;;;;;;1.92;1.60;;;19.60;63.00;;;;;;4885045;28;92506;-87
2022/10/12 02:46:57;;;;;;;2.38;1.67;;;19.60;63.00;;;;;;4929726;28;92524;-86
2022/10/12 02:49:44;;;;;;;2.35;1.42;;;19.60;63.00;;;;;;4971655;28;93224;-87
2022/10/12 02:52:29;;;;;;;2.97;1.65;;;19.60;62.80;;;;;;4957799;28;97548;-86
2022/10/12 02:54:55;;;;;;;1.92;1.50;;;19.60;62.80;;;;;;4912692;28;92108;-86
2022/10/12 02:57:21;;;;;;;2.75;1.92;;;19.60;63.00;;;;;;4888859;28;92162;-86
2022/10/12 02:59:46;;;;;;;3.47;1.65;;;19.60;62.90;;;;;;4918554;28;94198;-86
2022/10/12 03:02:12;;;;;;;1.90;1.50;;;19.60;62.80;;;;;;4909797;28;92268;-86
2022/10/12 03:04:37;;;;;;;1.73;1.50;;;19.50;62.90;;;;;;4903037;28;92096;-86
2022/10/12 03:07:03;;;;;;;2.75;1.38;;;19.60;62.80;;;;;;4903269;28;92773;-86
2022/10/12 03:09:29;;;;;;;2.17;1.65;;;19.50;62.90;;;;;;4918571;28;93154;-86
2022/10/12 03:11:54;;;;;;;1.73;1.20;;;19.50;62.90;;;;;;4918457;28;92993;-87
2022/10/12 03:14:21;;;;;;;2.65;1.80;;;19.50;63.00;;;;;;4918913;28;92104;-86
2022/10/12 03:16:57;;;;;;;;;;;;;;;;;;;;;
2022/10/12 03:19:23;;;;;;;2.70;1.75;;;19.50;62.80;;;;;;4919037;28;95596;-86
2022/10/12 03:21:48;;;;;;;2.53;1.75;;;19.50;62.90;;;;;;4920038;28;92414;-87
2022/10/12 03:24:14;;;;;;;1.88;1.38;;;19.50;63.50;;;;;;4946306;28;92922;-86
2022/10/12 03:26:59;;;;;;;2.60;1.52;;;19.50;62.90;;;;;;4948511;28;92102;-86
2022/10/12 03:29:25;;;;;;;2.20;1.33;;;19.50;62.70;;;;;;4910603;28;94917;-86
2022/10/12 03:31:51;;;;;;;3.03;1.85;;;19.50;63.00;;;;;;4931474;28;95864;-86
2022/10/12 03:34:16;;;;;;;1.88;1.40;;;19.50;62.80;;;;;;4946460;28;92480;-86
2022/10/12 03:36:42;;;;;;;2.33;1.42;;;19.50;62.70;;;;;;4947410;28;92288;-86
2022/10/12 03:39:07;;;;;;;2.35;1.50;;;19.50;62.80;;;;;;4948124;28;93244;-86
2022/10/12 03:41:33;;;;;;;2.30;1.50;;;19.50;62.80;;;;;;4947286;28;93456;-86
2022/10/12 03:43:59;;;;;;;2.05;1.48;;;19.50;62.50;;;;;;4945460;28;92301;-86
2022/10/12 03:46:24;;;;;;;1.65;1.33;;;19.50;62.50;;;;;;4947315;28;92471;-86
2022/10/12 03:48:50;;;;;;;3.80;1.50;;;19.50;62.50;;;;;;4928877;28;97124;-86
2022/10/12 03:51:25;;;;;;;;;;;;;;;;;;;;;
2022/10/12 03:53:51;;;;;;;2.97;1.98;;;19.40;62.70;;;;;;4928700;28;92232;-86
2022/10/12 03:56:16;;;;;;;2.30;1.80;;;19.50;62.80;;;;;;4945486;28;92546;-86
2022/10/12 03:58:42;;;;;;;2.50;1.60;;;19.40;62.60;;;;;;4917624;28;95264;-86
2022/10/12 04:01:08;;;;;;;2.75;1.55;;;19.40;62.70;;;;;;4960660;28;92969;-86
2022/10/12 04:03:33;;;;;;;1.80;1.42;;;19.40;62.50;;;;;;4968425;28;92699;-86
2022/10/12 04:05:59;;;;;;;2.22;1.70;;;19.40;62.60;;;;;;4969966;28;91747;-87
2022/10/12 04:08:26;;;;;;;3.42;1.77;;;19.50;62.70;;;;;;4966249;28;96600;-85
2022/10/12 04:10:52;;;;;;;2.05;1.48;;;19.40;62.40;;;;;;4973410;28;93348;-87
2022/10/12 04:13:18;;;;;;;4.25;1.75;;;19.50;62.40;;;;;;4970003;28;93917;-86
2022/10/12 04:15:43;;;;;;;2.13;1.70;;;19.40;63.60;;;;;;4968433;28;92561;-85
2022/10/12 04:18:09;;;;;;;3.28;2.65;;;19.50;62.60;;;;;;4969019;28;93721;-87
2022/10/12 04:20:35;;;;;;;3.33;2.63;;;19.50;62.70;;;;;;4969951;28;93354;-85
2022/10/12 04:23:00;;;;;;;3.63;2.90;;;19.50;62.90;;;;;;4970520;28;91833;-85
2022/10/12 04:25:26;;;;;;;3.03;2.28;;;19.40;62.90;;;;;;4967232;28;92090;-86
2022/10/12 04:27:52;;;;;;;5.03;2.88;;;19.40;63.20;;;;;;4983782;28;96642;-86
2022/10/12 04:30:17;;;;;;;5.30;2.97;;;19.40;63.00;;;;;;4969297;28;93207;-87
2022/10/12 04:32:43;;;;;;;4.47;3.00;;;19.40;63.20;;;;;;4970241;28;92452;-87
2022/10/12 04:35:09;;;;;;;4.82;2.60;;;19.40;63.20;;;;;;4967818;28;92446;-87
2022/10/12 04:37:34;;;;;;;3.28;2.72;;;19.40;63.50;;;;;;4967259;28;96045;-87
2022/10/12 04:40:00;;;;;;;3.58;2.72;;;19.40;63.20;;;;;;4967683;28;94485;-87
2022/10/12 04:42:29;;;;;;;3.60;2.60;;;19.40;63.30;;;;;;4966073;28;92167;-88
2022/10/12 04:44:54;;;;;;;5.20;2.50;;;19.40;63.10;;;;;;4949763;28;93145;-87
2022/10/12 04:47:20;;;;;;;4.82;2.53;;;19.50;62.30;;;;;;4964841;28;94554;-87
2022/10/12 04:49:45;;;;;;;2.97;2.65;;;19.50;62.90;;;;;;4965672;28;92670;-87
2022/10/12 04:52:11;;;;;;;3.00;2.40;;;19.40;62.80;;;;;;4965387;28;92354;-87
2022/10/12 04:54:37;;;;;;;4.25;2.60;;;19.40;63.00;;;;;;4966787;28;92144;-87
2022/10/12 04:57:02;;;;;;;3.25;2.55;;;19.40;63.80;;;;;;4948995;28;93963;-87
2022/10/12 04:59:28;;;;;;;3.17;2.40;;;19.40;63.00;;;;;;4964869;28;93417;-87
2022/10/12 05:01:54;;;;;;;4.97;3.13;;;19.40;63.00;;;;;;4966822;28;93760;-87
2022/10/12 05:04:20;;;;;;;3.47;2.35;;;19.30;62.70;;;;;;4967625;28;92102;-87
2022/10/12 05:06:45;;;;;;;3.78;2.70;;;19.30;62.80;;;;;;4933934;28;96612;-87
2022/10/12 05:09:11;;;;;;;4.80;2.42;;;19.30;63.00;;;;;;4965037;28;92508;-87
2022/10/12 05:11:37;;;;;;;6.07;3.00;;;19.30;62.90;;;;;;4966559;28;92621;-88
2022/10/12 05:14:03;;;;;;;5.85;2.70;;;19.30;63.00;;;;;;4946171;28;92592;-87
2022/10/12 05:16:28;;;;;;;3.25;2.65;;;19.30;62.80;;;;;;4949580;28;93852;-87
2022/10/12 05:18:54;;;;;;;4.53;2.83;;;19.30;62.70;;;;;;4950759;28;92848;-87
2022/10/12 05:21:19;;;;;;;3.33;2.40;;;19.30;63.50;;;;;;4951664;28;92053;-87
2022/10/12 05:23:51;;;;;;;3.53;2.65;;;19.30;62.90;;;;;;4952278;28;92128;-87
2022/10/12 05:26:25;;;;;;;4.65;2.72;;;19.30;62.60;;;;;;4948731;28;95991;-87
2022/10/12 05:28:51;;;;;;;4.95;2.92;;;19.20;62.60;;;;;;4949627;28;96493;-88
2022/10/12 05:31:16;;;;;;;4.00;2.70;;;19.20;62.60;;;;;;4950877;28;92767;-87
2022/10/12 05:33:42;;;;;;;4.38;2.67;;;19.20;62.70;;;;;;4948694;28;91955;-87
2022/10/12 05:36:08;;;;;;;3.25;2.65;;;19.20;62.60;;;;;;4932101;28;95910;-87
2022/10/12 05:38:34;;;;;;;3.08;2.67;;;19.20;62.60;;;;;;4950662;28;92477;-88
2022/10/12 05:40:59;;;;;;;3.40;2.65;;;19.20;62.50;;;;;;4948487;28;92342;-88
2022/10/12 05:43:25;;;;;;;3.40;2.67;;;19.20;62.40;;;;;;4940182;28;91659;-87
2022/10/12 05:45:50;;;;;;;4.75;2.90;;;19.20;62.40;;;;;;4949868;28;93772;-88
2022/10/12 05:48:16;;;;;;;3.03;2.63;;;19.20;62.60;;;;;;4948641;28;93256;-87
2022/10/12 05:50:42;;;;;;;6.22;2.45;;;19.20;62.50;;;;;;4933406;28;93113;-87
2022/10/12 05:53:07;;;;;;;3.67;2.88;;;19.20;62.40;;;;;;4924629;28;92669;-87
2022/10/12 05:55:33;;;;;;;3.53;2.58;;;19.20;62.50;;;;;;4950603;28;93695;-86
2022/10/12 05:57:58;;;;;;;3.35;2.60;;;19.20;62.40;;;;;;4933280;28;95950;-86
2022/10/12 06:00:24;;;;;;;5.03;3.00;;;19.20;62.00;;;;;;4931685;28;92119;-89
2022/10/12 06:02:50;;;;;;;3.85;2.40;;;19.20;62.00;;;;;;4933699;28;92450;-88
2022/10/12 06:05:17;;;;;;;5.05;2.80;;;19.20;62.00;;;;;;4937329;28;93433;-86
2022/10/12 06:07:43;;;;;;;3.00;2.40;;;19.30;62.00;;;;;;4940560;28;94190;-87
2022/10/12 06:10:08;;;;;;;6.60;2.97;;;19.40;61.60;;;;;;4932379;28;92490;-86
2022/10/12 06:12:54;;;;;;;8.15;2.90;;;19.40;61.70;;;;;;4916621;28;92659;-87
2022/10/12 06:15:20;;;;;;;10.40;3.47;;;19.50;61.50;;;;;;4927665;28;94090;-87
2022/10/12 06:17:45;;;;;;;10.50;3.65;;;19.60;61.20;;;;;;4930078;28;92497;-87
2022/10/12 06:20:11;;;;;;;14.50;3.95;;;19.70;60.90;;;;;;4914077;28;92130;-89
2022/10/12 06:22:37;;;;;;;10.23;3.97;;;19.80;60.80;;;;;;4930171;28;92073;-88
2022/10/12 06:25:03;;;;;;;20.70;5.57;;;19.90;60.70;;;;;;4916157;28;93986;-86
2022/10/12 06:27:29;;;;;;;17.67;5.25;;;20.00;60.00;;;;;;4914118;28;95382;-87
2022/10/12 06:29:54;;;;;;;18.58;4.68;;;20.10;59.50;;;;;;4914654;28;93248;-88
2022/10/12 06:32:20;;;;;;;15.88;4.68;;;20.20;59.50;;;;;;4929149;28;91406;-87
2022/10/12 06:34:45;;;;;;;13.98;4.70;;;20.40;59.80;;;;;;4913538;28;97022;-88
2022/10/12 06:37:11;;;;;;;14.73;4.32;;;20.50;59.50;;;;;;4931483;28;93182;-89
2022/10/12 06:39:37;;;;;;;19.08;6.45;;;20.50;58.70;;;;;;4918769;28;93654;-86
2022/10/12 06:42:02;;;;;;;21.42;6.15;;;20.60;58.80;;;;;;4935930;28;93318;-87
2022/10/12 06:44:28;;;;;;;20.90;6.90;;;20.60;59.80;;;;;;4937032;28;94591;-87
2022/10/12 06:46:54;;;;;;;16.40;6.30;;;20.60;61.30;;;;;;4940164;28;93455;-86
2022/10/12 06:49:19;;;;;;;18.10;5.68;;;20.70;59.30;;;;;;4941392;28;92833;-86
2022/10/12 06:52:00;;;;;;;13.40;5.63;;;20.60;59.00;;;;;;4940463;28;91980;-86
2022/10/12 06:54:26;;;;;;;17.70;5.60;;;20.60;62.60;;;;;;4939102;28;94168;-86
2022/10/12 06:56:51;;;;;;;16.13;5.63;;;20.50;60.80;;;;;;4908206;28;94762;-86
2022/10/12 06:59:18;;;;;;;17.02;5.55;;;20.60;60.20;;;;;;4916758;28;91877;-86
2022/10/12 07:01:43;;;;;;;19.48;5.75;;;20.50;60.10;;;;;;4940495;28;92715;-84
2022/10/12 07:04:09;;;;;;;16.17;5.40;;;20.60;58.40;;;;;;4939477;28;94649;-84
2022/10/12 07:06:35;;;;;;;14.68;5.68;;;20.70;57.30;;;;;;4938724;28;93545;-84
2022/10/12 07:09:00;;;;;;;15.25;5.03;;;20.70;58.00;;;;;;4938722;28;92273;-84
2022/10/12 07:11:26;;;;;;;11.98;5.13;;;20.70;58.00;;;;;;4938570;28;92386;-88
2022/10/12 07:13:52;;;;;;;14.73;5.18;;;20.60;58.60;;;;;;4936819;28;96825;-85
2022/10/12 07:16:18;;;;;;;14.30;5.65;;;20.60;57.70;;;;;;4935643;28;95420;-85
2022/10/12 07:18:43;;;;;;;16.25;5.55;;;20.60;58.30;;;;;;4936845;28;92656;-86
2022/10/12 07:21:09;;;;;;;13.15;5.22;;;20.50;59.00;;;;;;4935238;28;91519;-85
2022/10/12 07:23:36;;;;;;;11.73;5.20;;;20.50;59.20;;;;;;4937254;28;92165;-86
2022/10/12 07:26:02;;;;;;;16.80;4.35;;;20.40;59.30;;;;;;4936718;28;93304;-86
2022/10/12 07:28:28;;;;;;;15.43;4.97;;;20.40;59.40;;;;;;4937701;28;93404;-85
2022/10/12 07:30:54;;;;;;;13.10;5.13;;;20.30;59.60;;;;;;4936449;28;92106;-85
2022/10/12 07:33:19;;;;;;;12.52;6.05;;;20.30;59.70;;;;;;4935957;28;93511;-85
2022/10/12 07:35:54;;;;;;;12.18;4.63;;;20.40;59.20;;;;;;4915219;28;95088;-86
2022/10/12 07:38:20;;;;;;;14.73;4.72;;;20.30;59.60;;;;;;4931407;28;92371;-85
2022/10/12 07:40:46;;;;;;;13.38;5.03;;;20.30;59.60;;;;;;4938922;28;92653;-86
2022/10/12 07:43:12;;;;;;;10.68;4.43;;;20.30;59.50;;;;;;4967404;28;93369;-86
2022/10/12 07:45:38;;;;;;;14.82;4.88;;;20.20;59.70;;;;;;4966869;28;93385;-86
2022/10/12 07:48:09;;;;;;;12.18;4.40;;;20.20;59.70;;;;;;4966604;28;93006;-85
2022/10/12 07:50:34;;;;;;;12.23;4.50;;;20.20;59.80;;;;;;4966474;28;92621;-85
2022/10/12 07:53:00;;;;;;;8.65;4.78;;;20.20;59.90;;;;;;4964441;28;95272;-85
2022/10/12 07:55:26;;;;;;;10.00;4.88;;;20.20;59.60;;;;;;4964706;28;97170;-86
2022/10/12 07:57:51;;;;;;;12.30;4.60;;;20.20;58.00;;;;;;4963610;28;92737;-84
2022/10/12 08:00:17;;;;;;;9.27;4.88;;;20.20;59.20;;;;;;4965559;28;92665;-85
2022/10/12 08:02:43;;;;;;;13.88;4.85;;;20.20;59.40;;;;;;4965909;28;92155;-87
2022/10/12 08:05:08;;;;;;;9.88;4.40;;;20.10;59.60;;;;;;4965963;28;92759;-87
2022/10/12 08:07:34;;;;;;;10.40;4.65;;;20.10;58.50;;;;;;4966719;28;92819;-87
2022/10/12 08:10:00;;;;;;;8.38;4.15;;;20.10;59.50;;;;;;4966410;28;91296;-87
2022/10/12 08:12:25;;;;;;;11.38;3.72;;;20.10;59.00;;;;;;4966937;28;93683;-87
2022/10/12 08:15:00;;;;;;;12.13;4.05;;;20.10;59.60;;;;;;4965973;28;93344;-87
2022/10/12 08:17:25;;;;;;;13.77;4.95;;;20.10;59.60;;;;;;4965947;28;93527;-87
2022/10/12 08:19:51;;;;;;;13.60;4.75;;;20.10;59.70;;;;;;4965783;28;92646;-86
2022/10/12 08:22:16;;;;;;;9.60;4.10;;;20.10;59.70;;;;;;4966814;28;93139;-87
2022/10/12 08:24:42;;;;;;;11.07;4.07;;;20.10;59.70;;;;;;4966000;28;93215;-87
2022/10/12 08:27:08;;;;;;;13.10;4.22;;;20.10;59.70;;;;;;4965096;28;93247;-87
2022/10/12 08:29:33;;;;;;;12.75;4.80;;;20.10;59.60;;;;;;4965193;28;92503;-87
2022/10/12 08:32:00;;;;;;;8.13;4.00;;;20.10;59.60;;;;;;4964881;28;96555;-87
2022/10/12 08:34:27;;;;;;;11.15;4.57;;;20.10;59.60;;;;;;4965455;28;94304;-87
2022/10/12 08:36:53;;;;;;;12.82;4.53;;;20.20;59.60;;;;;;4965219;28;92405;-88
2022/10/12 08:39:19;;;;;;;10.05;4.28;;;20.10;59.60;;;;;;4966080;28;92392;-86
2022/10/12 08:42:08;;;;;;;10.55;4.75;;;20.10;59.60;;;;;;4965589;28;94577;-87
2022/10/12 08:45:06;;;;;;;9.27;4.53;;;20.20;59.30;;;;;;4956483;28;94458;-88
2022/10/12 08:47:43;;;;;;;9.13;4.05;;;20.20;59.30;;;;;;4966635;28;92295;-87
2022/10/12 08:50:44;;;;;;;12.60;4.97;;;20.20;59.00;;;;;;4964642;28;92900;-86
2022/10/12 08:53:26;;;;;;;13.45;4.60;;;20.20;58.60;;;;;;4897913;28;95845;-86
2022/10/12 08:55:52;;;;;;;7.75;3.95;;;20.20;59.20;;;;;;4916355;28;95215;-85
2022/10/12 08:58:30;;;;;;;8.93;4.05;;;20.20;59.40;;;;;;4900916;28;92875;-86
2022/10/12 09:01:28;;;;;;;9.25;4.10;;;20.20;59.50;;;;;;4917706;28;92670;-86
2022/10/12 09:04:30;;;;;;;10.63;4.32;;;20.20;59.40;;;;;;4916730;28;98458;-85
2022/10/12 09:07:14;;;;;;;11.43;4.50;;;20.20;59.50;;;;;;4859429;29;98340;-86
2022/10/12 09:09:55;;;;;;;8.55;3.70;;;20.20;59.10;;;;;;4859330;29;93216;-87
2022/10/12 09:12:51;;;;;;;9.48;4.05;;;20.30;59.10;;;;;;4860646;29;92765;-88
2022/10/12 09:15:25;;;;;;;11.68;4.32;;;20.30;59.00;;;;;;4860061;29;94401;-87
2022/10/12 09:17:55;;;;;;;11.13;3.63;;;20.30;59.30;;;;;;4860347;28;95958;-87
2022/10/12 09:20:27;;;;;;;9.23;3.88;;;20.30;59.20;;;;;;4860185;29;92512;-87
2022/10/12 09:22:57;;;;;;;7.25;3.70;;;20.30;59.20;;;;;;4859442;29;92825;-86
2022/10/12 09:25:25;;;;;;;8.93;3.78;;;20.20;59.30;;;;;;4860248;29;93929;-86
2022/10/12 09:27:51;;;;;;;12.18;4.18;;;20.20;59.30;;;;;;4844503;29;96268;-87
2022/10/12 09:30:18;;;;;;;13.23;4.03;;;20.20;59.30;;;;;;4882509;28;92748;-86
2022/10/12 09:33:03;;;;;;;8.18;3.58;;;20.20;59.20;;;;;;4890690;28;92549;-86
2022/10/12 09:35:29;;;;;;;8.60;3.95;;;20.20;59.40;;;;;;4905725;28;93613;-86
2022/10/12 09:37:55;;;;;;;7.95;3.83;;;20.20;59.40;;;;;;4907819;28;94595;-87
2022/10/12 09:40:25;;;;;;;8.82;3.65;;;20.20;59.50;;;;;;4906774;28;92568;-86
2022/10/12 09:42:52;;;;;;;7.68;4.03;;;20.20;59.40;;;;;;4908466;28;92928;-88
2022/10/12 09:45:20;;;;;;;7.05;3.97;;;20.30;59.40;;;;;;4969703;28;93979;-87
2022/10/12 09:48:17;;;;;;;12.07;3.83;;;20.30;59.30;;;;;;4967306;28;96404;-86
2022/10/12 09:50:53;;;;;;;7.45;3.65;;;20.40;59.20;;;;;;4967359;28;92380;-88
2022/10/12 09:53:46;;;;;;;8.43;4.28;;;20.40;59.20;;;;;;4968194;28;91131;-88
2022/10/12 09:56:23;;;;;;;8.48;3.85;;;20.40;59.20;;;;;;4969465;28;93545;-88
2022/10/12 09:58:52;;;;;;;9.38;4.03;;;20.40;59.40;;;;;;4967118;28;96239;-88
2022/10/12 10:01:26;;;;;;;8.32;3.78;;;20.40;59.50;;;;;;4966778;28;93531;-87
2022/10/12 10:04:22;;;;;;;9.07;3.80;;;20.40;59.50;;;;;;4969263;28;92657;-87
2022/10/12 10:06:48;;;;;;;10.70;3.63;;;20.40;59.60;;;;;;4965609;28;95920;-87
2022/10/12 10:09:27;;;;;;;10.10;3.65;;;20.50;59.60;;;;;;4967693;28;93521;-87
2022/10/12 10:11:53;;;;;;;;;;;20.50;59.70;;;;;;4968120;28;92859;-87
2022/10/12 10:14:18;;;;;;;10.13;3.70;;;20.70;59.10;;;;;;4969552;28;91886;-86
2022/10/12 10:16:49;;;;;;;10.07;4.32;;;20.70;58.90;;;;;;4967683;28;93097;-88
2022/10/12 10:19:23;;;;;;;13.70;4.20;;;20.80;58.90;;;;;;4968695;28;96347;-87
2022/10/12 10:21:50;;;;;;;11.55;3.65;;;20.80;58.80;;;;;;4982839;28;92109;-87
2022/10/12 10:24:26;;;;;;;13.70;3.50;;;20.90;58.40;;;;;;4966788;28;92067;-86
2022/10/12 10:27:02;;;;;;;13.40;3.85;;;21.10;58.70;;;;;;4958014;28;96167;-88
2022/10/12 10:29:35;;;;;;;10.88;3.72;;;21.20;58.50;;;;;;4980127;28;97340;-87
2022/10/12 10:32:23;;;;;;;17.25;3.53;;;21.30;58.30;;;;;;4969959;28;92165;-88
2022/10/12 10:35:19;;;;;;;13.60;3.58;;;21.50;58.40;;;;;;4968626;28;92024;-88
2022/10/12 10:37:50;;;;;;;15.10;4.55;;;21.50;58.40;;;;;;4928206;28;95238;-88
2022/10/12 10:40:31;;;;;;;14.32;3.72;;;21.50;58.30;;;;;;4911486;28;96287;-89
2022/10/12 10:43:02;;;;;;;10.93;3.78;;;21.50;58.50;;;;;;4935867;28;92414;-87
2022/10/12 10:45:52;;;;;;;15.18;3.50;;;21.60;58.50;;;;;;4930521;28;91965;-87
2022/10/12 10:48:21;;;;;;;;;;;21.60;58.50;;;;;;4910721;28;96147;-86
2022/10/12 10:50:59;;;;;;;10.73;3.33;;;21.60;58.50;;;;;;4930582;28;92404;-87
2022/10/12 10:53:29;;;;;;;17.77;4.25;;;21.60;58.50;;;;;;4890126;28;93948;-89
2022/10/12 10:55:57;;;;;;;8.95;3.28;;;21.60;57.40;;;;;;4891126;28;92675;-87
2022/10/12 10:58:31;;;;;;;15.47;3.43;;;21.60;56.90;;;;;;4888860;28;93711;-87
2022/10/12 11:01:02;;;;;;;14.32;3.45;;;21.60;57.70;;;;;;4888375;28;96051;-87
2022/10/12 11:03:41;;;;;;;16.00;4.03;;;21.60;58.00;;;;;;4870153;28;92437;-89
2022/10/12 11:06:17;;;;;;;12.67;3.70;;;21.70;58.00;;;;;;4889857;28;92013;-89
2022/10/12 11:08:45;;;;;;;16.27;4.22;;;21.60;58.10;;;;;;4915095;28;92660;-86
2022/10/12 11:11:19;;;;;;;10.70;3.53;;;21.60;58.10;;;;;;4945134;28;96673;-87
2022/10/12 11:13:59;;;;;;;18.85;3.58;;;21.50;58.40;;;;;;4946819;28;92203;-87
2022/10/12 11:16:46;;;;;;;18.58;3.90;;;21.50;58.40;;;;;;4943935;28;92199;-88
2022/10/12 11:19:14;;;;;;;21.85;3.92;;;21.50;58.30;;;;;;4945619;28;99405;-88
2022/10/12 11:21:49;;;;;;;16.52;3.92;;;21.50;57.60;;;;;;4947344;28;93873;-87
2022/10/12 11:24:29;;;;;;;17.35;4.50;;;21.50;56.60;;;;;;4952654;28;92637;-86
2022/10/12 11:27:15;;;;;;;26.13;5.07;;;21.50;55.50;;;;;;4965326;28;92637;-86
2022/10/12 11:29:41;;;;;;;21.15;4.25;;;21.50;55.80;;;;;;4966130;28;92848;-87
2022/10/12 11:32:49;;;;;;;20.25;4.25;;;21.50;56.20;;;;;;4965827;28;92913;-85
2022/10/12 11:35:23;;;;;;;18.80;4.75;;;21.40;56.50;;;;;;4896309;28;92105;-85
2022/10/12 11:37:56;;;;;;;20.08;4.80;;;21.50;57.10;;;;;;4881265;28;91620;-84
2022/10/12 11:40:46;;;;;;;27.70;5.03;;;21.50;57.00;;;;;;4897717;28;93936;-85
2022/10/12 11:43:19;;;;;;;33.30;5.85;;;21.60;57.20;;;;;;4896637;28;99733;-88
2022/10/12 11:45:49;;;;;;;21.75;4.78;;;21.60;57.60;;;;;;4896607;28;93059;-85
2022/10/12 11:48:49;;;;;;;31.45;4.93;;;21.60;56.60;;;;;;4896106;28;92630;-86
2022/10/12 11:51:15;;;;;;;23.38;4.78;;;21.50;56.70;;;;;;4836463;29;94580;-85
2022/10/12 11:53:57;;;;;;;25.95;4.78;;;21.40;57.80;;;;;;4821894;29;97172;-86
2022/10/12 11:56:48;;;;;;;23.55;4.53;;;21.30;58.20;;;;;;4822277;29;92713;-86
2022/10/12 11:59:16;;;;;;;18.67;5.32;;;21.20;58.50;;;;;;4837795;29;92607;-86
2022/10/12 12:02:10;;;;;;;21.83;5.22;;;21.10;58.70;;;;;;4811850;29;96534;-85
2022/10/12 12:04:36;;;;;;;19.77;4.20;;;21.10;59.00;;;;;;4837746;29;93052;-86
2022/10/12 12:07:38;;;;;;;21.15;4.43;;;21.10;58.90;;;;;;4838888;29;92613;-86
2022/10/12 12:10:25;;;;;;;15.88;4.63;;;21.10;59.10;;;;;;4849865;28;93149;-85
2022/10/12 12:13:13;;;;;;;20.38;4.93;;;21.20;59.00;;;;;;4903850;28;94033;-86
2022/10/12 12:15:41;;;;;;;21.65;5.35;;;21.20;58.70;;;;;;4905366;28;94481;-87
2022/10/12 12:18:11;;;;;;;19.60;4.40;;;21.20;58.70;;;;;;4905102;28;92284;-84
2022/10/12 12:20:45;;;;;;;15.85;3.78;;;21.20;58.50;;;;;;4905101;28;92158;-88
2022/10/12 12:23:42;;;;;;;16.02;3.70;;;21.20;58.40;;;;;;4896799;28;92866;-86
2022/10/12 12:26:10;;;;;;;19.02;4.28;;;21.20;58.50;;;;;;4907398;28;95041;-86
2022/10/12 12:28:47;;;;;;;17.00;4.05;;;21.20;58.80;;;;;;4944640;28;92530;-86
2022/10/12 12:31:24;;;;;;;16.88;4.32;;;21.20;58.50;;;;;;4967752;28;91753;-86
2022/10/12 12:34:31;;;;;;;20.08;4.97;;;21.20;58.50;;;;;;4961971;28;96541;-87
2022/10/12 12:37:10;;;;;;;19.10;4.82;;;21.20;58.30;;;;;;4908084;28;100395;-86
2022/10/12 12:39:37;;;;;;;21.63;5.40;;;21.20;58.30;;;;;;4903074;28;93702;-86
2022/10/12 12:42:06;;;;;;;14.70;3.63;;;21.20;58.20;;;;;;4904480;28;92415;-86
2022/10/12 12:44:43;;;;;;;17.87;4.50;;;21.20;58.20;;;;;;4902902;28;93739;-87
2022/10/12 12:47:12;;;;;;;15.50;4.00;;;21.20;58.50;;;;;;4897089;28;93388;-86
2022/10/12 12:49:51;;;;;;;19.90;4.57;;;21.20;58.80;;;;;;4915639;28;92086;-87
2022/10/12 12:52:40;;;;;;;11.65;4.07;;;21.20;58.30;;;;;;4904617;28;92161;-85
2022/10/12 12:55:38;;;;;;;15.20;4.43;;;21.10;58.60;;;;;;4906435;28;98405;-86
2022/10/12 12:58:33;;;;;;;13.80;4.28;;;21.10;58.40;;;;;;4889205;28;100857;-87
2022/10/12 13:01:32;;;;;;;16.50;4.03;;;21.10;58.40;;;;;;4885540;28;92642;-86
2022/10/12 13:04:38;;;;;;;21.42;4.30;;;21.20;58.60;;;;;;4886678;28;91986;-87
2022/10/12 13:07:32;;;;;;;15.45;4.15;;;21.20;58.50;;;;;;4883557;28;99646;-87
2022/10/12 13:10:16;;;;;;;9.20;3.90;;;21.10;58.60;;;;;;4868305;28;98592;-87
2022/10/12 13:12:57;;;;;;;11.05;3.75;;;21.20;58.60;;;;;;4877709;28;92978;-87